sensor_id;sensor_type;location;lat;lon;timestamp;P1;durP1;ratioP1;P2;durP2;ratioP2
70558;SDS011;58108;48.094;11.838;2023-08-12T00:00:28;5.72;;;2.70;;
70558;SDS011;58108;48.094;11.838;2023-08-12T00:02:54;5.10;;;2.30;;
70558;SDS011;58108;48.094;11.838;2023-08-12T00:05:19;6.07;;;2.63;;
70558;SDS011;58108;48.094;11.838;2023-08-12T00:07:45;5.73;;;2.47;;
70558;SDS011;58108;48.094;11.838;2023-08-12T00:10:10;6.23;;;2.73;;
70558;SDS011;58108;48.094;11.838;2023-08-12T00:12:36;4.88;;;2.92;;
70558;SDS011;58108;48.094;11.838;2023-08-12T00:15:02;5.20;;;2.73;;
70558;SDS011;58108;48.094;11.838;2023-08-12T00:17:28;5.25;;;2.60;;
70558;SDS011;58108;48.094;11.838;2023-08-12T00:19:53;3.93;;;2.40;;
70558;SDS011;58108;48.094;11.838;2023-08-12T00:22:18;5.60;;;3.00;;
70558;SDS011;58108;48.094;11.838;2023-08-12T00:24:43;7.03;;;2.60;;
70558;SDS011;58108;48.094;11.838;2023-08-12T00:27:09;4.80;;;2.40;;
70558;SDS011;58108;48.094;11.838;2023-08-12T00:29:35;4.47;;;2.70;;
70558;SDS011;58108;48.094;11.838;2023-08-12T00:32:00;5.63;;;2.73;;
70558;SDS011;58108;48.094;11.838;2023-08-12T00:34:25;5.97;;;2.83;;
70558;SDS011;58108;48.094;11.838;2023-08-12T00:36:50;5.37;;;2.97;;
70558;SDS011;58108;48.094;11.838;2023-08-12T00:39:16;5.00;;;2.87;;
70558;SDS011;58108;48.094;11.838;2023-08-12T00:41:41;5.77;;;2.90;;
70558;SDS011;58108;48.094;11.838;2023-08-12T00:44:06;4.80;;;2.80;;
70558;SDS011;58108;48.094;11.838;2023-08-12T00:46:32;5.90;;;2.80;;
70558;SDS011;58108;48.094;11.838;2023-08-12T00:48:57;5.65;;;2.45;;
70558;SDS011;58108;48.094;11.838;2023-08-12T00:51:22;4.83;;;2.57;;
70558;SDS011;58108;48.094;11.838;2023-08-12T00:53:48;6.23;;;2.97;;
70558;SDS011;58108;48.094;11.838;2023-08-12T00:56:15;4.78;;;3.03;;
70558;SDS011;58108;48.094;11.838;2023-08-12T00:58:40;7.50;;;3.10;;
70558;SDS011;58108;48.094;11.838;2023-08-12T01:01:06;5.60;;;2.70;;
70558;SDS011;58108;48.094;11.838;2023-08-12T01:03:31;7.53;;;2.70;;
70558;SDS011;58108;48.094;11.838;2023-08-12T01:05:56;5.17;;;2.60;;
70558;SDS011;58108;48.094;11.838;2023-08-12T01:08:22;5.17;;;2.40;;
70558;SDS011;58108;48.094;11.838;2023-08-12T01:10:49;5.80;;;2.80;;
70558;SDS011;58108;48.094;11.838;2023-08-12T01:15:43;6.68;;;3.10;;
70558;SDS011;58108;48.094;11.838;2023-08-12T01:18:08;6.03;;;3.20;;
70558;SDS011;58108;48.094;11.838;2023-08-12T01:20:35;5.22;;;3.15;;
70558;SDS011;58108;48.094;11.838;2023-08-12T01:23:08;4.85;;;2.88;;
70558;SDS011;58108;48.094;11.838;2023-08-12T01:25:33;5.85;;;3.05;;
70558;SDS011;58108;48.094;11.838;2023-08-12T01:27:58;5.25;;;2.90;;
70558;SDS011;58108;48.094;11.838;2023-08-12T01:30:23;5.67;;;2.83;;
70558;SDS011;58108;48.094;11.838;2023-08-12T01:32:57;4.97;;;3.03;;
70558;SDS011;58108;48.094;11.838;2023-08-12T01:35:29;6.40;;;3.22;;
70558;SDS011;58108;48.094;11.838;2023-08-12T01:37:55;6.25;;;3.42;;
70558;SDS011;58108;48.094;11.838;2023-08-12T01:40:22;6.67;;;3.60;;
70558;SDS011;58108;48.094;11.838;2023-08-12T01:42:47;5.88;;;3.15;;
70558;SDS011;58108;48.094;11.838;2023-08-12T01:45:12;4.53;;;2.90;;
70558;SDS011;58108;48.094;11.838;2023-08-12T01:47:38;4.20;;;2.50;;
70558;SDS011;58108;48.094;11.838;2023-08-12T01:50:03;4.80;;;2.53;;
70558;SDS011;58108;48.094;11.838;2023-08-12T01:52:28;7.53;;;3.00;;
70558;SDS011;58108;48.094;11.838;2023-08-12T01:54:54;4.67;;;2.80;;
70558;SDS011;58108;48.094;11.838;2023-08-12T01:57:19;5.70;;;2.90;;
70558;SDS011;58108;48.094;11.838;2023-08-12T01:59:44;6.47;;;3.10;;
70558;SDS011;58108;48.094;11.838;2023-08-12T02:02:09;6.67;;;3.10;;
70558;SDS011;58108;48.094;11.838;2023-08-12T02:04:35;6.05;;;3.05;;
70558;SDS011;58108;48.094;11.838;2023-08-12T02:07:02;8.23;;;3.40;;
70558;SDS011;58108;48.094;11.838;2023-08-12T02:09:27;6.70;;;3.17;;
70558;SDS011;58108;48.094;11.838;2023-08-12T02:11:53;7.23;;;3.27;;
70558;SDS011;58108;48.094;11.838;2023-08-12T02:14:18;5.70;;;2.90;;
70558;SDS011;58108;48.094;11.838;2023-08-12T02:16:43;5.73;;;2.60;;
70558;SDS011;58108;48.094;11.838;2023-08-12T02:19:08;5.43;;;2.73;;
70558;SDS011;58108;48.094;11.838;2023-08-12T02:21:33;5.93;;;2.80;;
70558;SDS011;58108;48.094;11.838;2023-08-12T02:23:58;7.23;;;2.93;;
70558;SDS011;58108;48.094;11.838;2023-08-12T02:26:24;4.87;;;2.97;;
70558;SDS011;58108;48.094;11.838;2023-08-12T02:28:49;5.47;;;3.00;;
70558;SDS011;58108;48.094;11.838;2023-08-12T02:31:15;5.67;;;2.80;;
70558;SDS011;58108;48.094;11.838;2023-08-12T02:33:40;7.50;;;3.40;;
70558;SDS011;58108;48.094;11.838;2023-08-12T02:36:05;6.57;;;3.33;;
70558;SDS011;58108;48.094;11.838;2023-08-12T02:38:30;7.13;;;3.20;;
70558;SDS011;58108;48.094;11.838;2023-08-12T02:40:56;5.07;;;3.20;;
70558;SDS011;58108;48.094;11.838;2023-08-12T02:43:21;5.77;;;3.40;;
70558;SDS011;58108;48.094;11.838;2023-08-12T02:45:46;5.97;;;3.40;;
70558;SDS011;58108;48.094;11.838;2023-08-12T02:48:11;5.83;;;3.40;;
70558;SDS011;58108;48.094;11.838;2023-08-12T02:50:37;5.27;;;3.10;;
70558;SDS011;58108;48.094;11.838;2023-08-12T02:53:02;7.37;;;3.60;;
70558;SDS011;58108;48.094;11.838;2023-08-12T02:55:27;7.20;;;3.60;;
70558;SDS011;58108;48.094;11.838;2023-08-12T02:57:52;6.67;;;3.80;;
70558;SDS011;58108;48.094;11.838;2023-08-12T03:00:18;6.73;;;3.70;;
70558;SDS011;58108;48.094;11.838;2023-08-12T03:02:43;6.50;;;3.60;;
70558;SDS011;58108;48.094;11.838;2023-08-12T03:05:08;6.50;;;3.60;;
70558;SDS011;58108;48.094;11.838;2023-08-12T03:07:34;6.77;;;3.93;;
70558;SDS011;58108;48.094;11.838;2023-08-12T03:09:59;6.20;;;3.65;;
70558;SDS011;58108;48.094;11.838;2023-08-12T03:12:24;5.83;;;3.50;;
70558;SDS011;58108;48.094;11.838;2023-08-12T03:14:50;5.97;;;3.87;;
70558;SDS011;58108;48.094;11.838;2023-08-12T03:17:15;8.93;;;4.10;;
70558;SDS011;58108;48.094;11.838;2023-08-12T03:19:40;4.87;;;3.00;;
70558;SDS011;58108;48.094;11.838;2023-08-12T03:22:05;6.97;;;3.40;;
70558;SDS011;58108;48.094;11.838;2023-08-12T03:24:30;5.63;;;3.30;;
70558;SDS011;58108;48.094;11.838;2023-08-12T03:26:56;6.70;;;3.50;;
70558;SDS011;58108;48.094;11.838;2023-08-12T03:29:21;5.97;;;3.30;;
70558;SDS011;58108;48.094;11.838;2023-08-12T03:31:46;7.70;;;3.37;;
70558;SDS011;58108;48.094;11.838;2023-08-12T03:34:11;6.20;;;3.33;;
70558;SDS011;58108;48.094;11.838;2023-08-12T03:36:36;8.87;;;4.07;;
70558;SDS011;58108;48.094;11.838;2023-08-12T03:39:01;7.60;;;4.47;;
70558;SDS011;58108;48.094;11.838;2023-08-12T03:41:27;9.00;;;4.40;;
70558;SDS011;58108;48.094;11.838;2023-08-12T03:43:52;8.40;;;4.67;;
70558;SDS011;58108;48.094;11.838;2023-08-12T03:46:17;7.33;;;4.30;;
70558;SDS011;58108;48.094;11.838;2023-08-12T03:48:42;6.90;;;4.30;;
70558;SDS011;58108;48.094;11.838;2023-08-12T03:51:08;10.23;;;4.80;;
70558;SDS011;58108;48.094;11.838;2023-08-12T03:53:33;7.90;;;4.50;;
70558;SDS011;58108;48.094;11.838;2023-08-12T03:55:58;8.37;;;4.97;;
70558;SDS011;58108;48.094;11.838;2023-08-12T03:58:23;9.60;;;4.63;;
70558;SDS011;58108;48.094;11.838;2023-08-12T04:00:48;8.70;;;4.70;;
70558;SDS011;58108;48.094;11.838;2023-08-12T04:03:13;8.43;;;4.50;;
70558;SDS011;58108;48.094;11.838;2023-08-12T04:05:46;8.27;;;4.73;;
70558;SDS011;58108;48.094;11.838;2023-08-12T04:08:11;7.90;;;4.70;;
70558;SDS011;58108;48.094;11.838;2023-08-12T04:10:36;9.90;;;4.40;;
70558;SDS011;58108;48.094;11.838;2023-08-12T04:13:02;8.70;;;4.67;;
70558;SDS011;58108;48.094;11.838;2023-08-12T04:15:27;7.63;;;4.45;;
70558;SDS011;58108;48.094;11.838;2023-08-12T04:17:52;7.77;;;4.67;;
70558;SDS011;58108;48.094;11.838;2023-08-12T04:20:17;7.57;;;4.70;;
70558;SDS011;58108;48.094;11.838;2023-08-12T04:22:43;9.57;;;5.17;;
70558;SDS011;58108;48.094;11.838;2023-08-12T04:25:08;6.97;;;4.20;;
70558;SDS011;58108;48.094;11.838;2023-08-12T04:27:33;6.80;;;4.20;;
70558;SDS011;58108;48.094;11.838;2023-08-12T04:29:59;9.03;;;4.80;;
70558;SDS011;58108;48.094;11.838;2023-08-12T04:32:24;8.03;;;4.20;;
70558;SDS011;58108;48.094;11.838;2023-08-12T04:34:49;8.77;;;4.93;;
70558;SDS011;58108;48.094;11.838;2023-08-12T04:37:14;8.53;;;4.70;;
70558;SDS011;58108;48.094;11.838;2023-08-12T04:39:40;7.90;;;4.60;;
70558;SDS011;58108;48.094;11.838;2023-08-12T04:42:05;8.30;;;4.68;;
70558;SDS011;58108;48.094;11.838;2023-08-12T04:44:30;9.80;;;5.13;;
70558;SDS011;58108;48.094;11.838;2023-08-12T04:46:56;7.85;;;5.15;;
70558;SDS011;58108;48.094;11.838;2023-08-12T04:49:21;8.83;;;5.10;;
70558;SDS011;58108;48.094;11.838;2023-08-12T04:51:48;7.53;;;4.43;;
70558;SDS011;58108;48.094;11.838;2023-08-12T04:54:16;8.25;;;5.25;;
70558;SDS011;58108;48.094;11.838;2023-08-12T04:56:41;7.33;;;4.50;;
70558;SDS011;58108;48.094;11.838;2023-08-12T04:59:06;9.50;;;5.27;;
70558;SDS011;58108;48.094;11.838;2023-08-12T05:01:33;8.98;;;4.70;;
70558;SDS011;58108;48.094;11.838;2023-08-12T05:03:58;8.57;;;4.20;;
70558;SDS011;58108;48.094;11.838;2023-08-12T05:06:23;9.27;;;5.60;;
70558;SDS011;58108;48.094;11.838;2023-08-12T05:08:49;8.23;;;5.00;;
70558;SDS011;58108;48.094;11.838;2023-08-12T05:11:14;7.83;;;4.20;;
70558;SDS011;58108;48.094;11.838;2023-08-12T05:13:39;7.20;;;3.90;;
70558;SDS011;58108;48.094;11.838;2023-08-12T05:16:05;7.43;;;4.00;;
70558;SDS011;58108;48.094;11.838;2023-08-12T05:18:30;6.67;;;3.90;;
70558;SDS011;58108;48.094;11.838;2023-08-12T05:20:55;7.60;;;3.70;;
70558;SDS011;58108;48.094;11.838;2023-08-12T05:23:21;5.83;;;3.50;;
70558;SDS011;58108;48.094;11.838;2023-08-12T05:25:46;6.17;;;3.40;;
70558;SDS011;58108;48.094;11.838;2023-08-12T05:28:11;5.63;;;3.50;;
70558;SDS011;58108;48.094;11.838;2023-08-12T05:30:37;6.30;;;3.80;;
70558;SDS011;58108;48.094;11.838;2023-08-12T05:33:03;9.27;;;3.88;;
70558;SDS011;58108;48.094;11.838;2023-08-12T05:35:32;6.17;;;3.60;;
70558;SDS011;58108;48.094;11.838;2023-08-12T05:37:57;7.10;;;3.85;;
70558;SDS011;58108;48.094;11.838;2023-08-12T05:40:23;5.47;;;3.43;;
70558;SDS011;58108;48.094;11.838;2023-08-12T05:42:48;5.40;;;3.40;;
70558;SDS011;58108;48.094;11.838;2023-08-12T05:45:13;5.97;;;3.50;;
70558;SDS011;58108;48.094;11.838;2023-08-12T05:47:38;6.03;;;3.33;;
70558;SDS011;58108;48.094;11.838;2023-08-12T05:50:04;5.13;;;3.30;;
70558;SDS011;58108;48.094;11.838;2023-08-12T05:52:29;7.60;;;3.80;;
70558;SDS011;58108;48.094;11.838;2023-08-12T05:54:54;5.50;;;3.60;;
70558;SDS011;58108;48.094;11.838;2023-08-12T05:57:19;5.53;;;3.30;;
70558;SDS011;58108;48.094;11.838;2023-08-12T05:59:45;5.53;;;3.23;;
70558;SDS011;58108;48.094;11.838;2023-08-12T06:02:10;5.43;;;3.20;;
70558;SDS011;58108;48.094;11.838;2023-08-12T06:04:35;6.43;;;3.20;;
70558;SDS011;58108;48.094;11.838;2023-08-12T06:07:01;6.37;;;3.30;;
70558;SDS011;58108;48.094;11.838;2023-08-12T06:09:26;5.97;;;3.50;;
70558;SDS011;58108;48.094;11.838;2023-08-12T06:11:51;7.00;;;3.27;;
70558;SDS011;58108;48.094;11.838;2023-08-12T06:14:16;6.23;;;3.40;;
70558;SDS011;58108;48.094;11.838;2023-08-12T06:16:41;6.97;;;3.37;;
70558;SDS011;58108;48.094;11.838;2023-08-12T06:19:07;5.20;;;3.33;;
70558;SDS011;58108;48.094;11.838;2023-08-12T06:21:32;4.83;;;3.53;;
70558;SDS011;58108;48.094;11.838;2023-08-12T06:23:57;5.60;;;3.20;;
70558;SDS011;58108;48.094;11.838;2023-08-12T06:26:22;5.27;;;3.40;;
70558;SDS011;58108;48.094;11.838;2023-08-12T06:28:48;4.70;;;3.20;;
70558;SDS011;58108;48.094;11.838;2023-08-12T06:31:13;6.07;;;3.20;;
70558;SDS011;58108;48.094;11.838;2023-08-12T06:33:38;5.23;;;3.27;;
70558;SDS011;58108;48.094;11.838;2023-08-12T06:36:03;5.73;;;2.90;;
70558;SDS011;58108;48.094;11.838;2023-08-12T06:38:29;5.50;;;3.00;;
70558;SDS011;58108;48.094;11.838;2023-08-12T06:40:54;7.33;;;3.30;;
70558;SDS011;58108;48.094;11.838;2023-08-12T06:43:19;5.40;;;3.33;;
70558;SDS011;58108;48.094;11.838;2023-08-12T06:45:45;5.43;;;3.40;;
70558;SDS011;58108;48.094;11.838;2023-08-12T06:48:10;5.70;;;3.13;;
70558;SDS011;58108;48.094;11.838;2023-08-12T06:50:35;4.67;;;3.10;;
70558;SDS011;58108;48.094;11.838;2023-08-12T06:53:00;6.37;;;3.30;;
70558;SDS011;58108;48.094;11.838;2023-08-12T06:55:25;4.67;;;2.90;;
70558;SDS011;58108;48.094;11.838;2023-08-12T06:57:51;4.37;;;3.00;;
70558;SDS011;58108;48.094;11.838;2023-08-12T07:00:16;5.50;;;3.47;;
70558;SDS011;58108;48.094;11.838;2023-08-12T07:02:41;5.33;;;3.33;;
70558;SDS011;58108;48.094;11.838;2023-08-12T07:05:07;5.55;;;3.20;;
70558;SDS011;58108;48.094;11.838;2023-08-12T07:07:33;5.87;;;3.13;;
70558;SDS011;58108;48.094;11.838;2023-08-12T07:09:58;4.83;;;3.13;;
70558;SDS011;58108;48.094;11.838;2023-08-12T07:12:23;5.03;;;3.07;;
70558;SDS011;58108;48.094;11.838;2023-08-12T07:14:48;6.00;;;3.13;;
70558;SDS011;58108;48.094;11.838;2023-08-12T07:17:13;5.50;;;3.10;;
70558;SDS011;58108;48.094;11.838;2023-08-12T07:19:39;5.30;;;3.30;;
70558;SDS011;58108;48.094;11.838;2023-08-12T07:22:04;7.17;;;2.97;;
70558;SDS011;58108;48.094;11.838;2023-08-12T07:24:29;5.73;;;3.40;;
70558;SDS011;58108;48.094;11.838;2023-08-12T07:26:54;4.70;;;2.90;;
70558;SDS011;58108;48.094;11.838;2023-08-12T07:29:20;5.63;;;3.20;;
70558;SDS011;58108;48.094;11.838;2023-08-12T07:31:46;4.90;;;3.10;;
70558;SDS011;58108;48.094;11.838;2023-08-12T07:34:11;4.90;;;3.10;;
70558;SDS011;58108;48.094;11.838;2023-08-12T07:36:38;4.28;;;2.97;;
70558;SDS011;58108;48.094;11.838;2023-08-12T07:39:03;4.97;;;2.97;;
70558;SDS011;58108;48.094;11.838;2023-08-12T07:41:29;4.53;;;3.17;;
70558;SDS011;58108;48.094;11.838;2023-08-12T07:43:54;4.57;;;3.23;;
70558;SDS011;58108;48.094;11.838;2023-08-12T07:46:19;4.63;;;3.00;;
70558;SDS011;58108;48.094;11.838;2023-08-12T07:48:44;6.13;;;3.10;;
70558;SDS011;58108;48.094;11.838;2023-08-12T07:51:09;5.03;;;3.10;;
70558;SDS011;58108;48.094;11.838;2023-08-12T07:53:35;6.70;;;2.97;;
70558;SDS011;58108;48.094;11.838;2023-08-12T07:56:00;4.13;;;3.00;;
70558;SDS011;58108;48.094;11.838;2023-08-12T07:58:26;5.27;;;3.30;;
70558;SDS011;58108;48.094;11.838;2023-08-12T08:00:54;5.23;;;3.00;;
70558;SDS011;58108;48.094;11.838;2023-08-12T08:03:19;5.10;;;3.20;;
70558;SDS011;58108;48.094;11.838;2023-08-12T08:05:44;5.17;;;3.23;;
70558;SDS011;58108;48.094;11.838;2023-08-12T08:08:11;5.67;;;3.30;;
70558;SDS011;58108;48.094;11.838;2023-08-12T08:10:37;4.50;;;3.20;;
70558;SDS011;58108;48.094;11.838;2023-08-12T08:13:02;6.70;;;3.10;;
70558;SDS011;58108;48.094;11.838;2023-08-12T08:15:28;5.20;;;3.20;;
70558;SDS011;58108;48.094;11.838;2023-08-12T08:17:53;4.97;;;3.30;;
70558;SDS011;58108;48.094;11.838;2023-08-12T08:20:18;5.47;;;3.07;;
70558;SDS011;58108;48.094;11.838;2023-08-12T08:22:43;4.63;;;3.20;;
70558;SDS011;58108;48.094;11.838;2023-08-12T08:25:09;4.97;;;3.20;;
70558;SDS011;58108;48.094;11.838;2023-08-12T08:27:34;7.07;;;3.60;;
70558;SDS011;58108;48.094;11.838;2023-08-12T08:29:59;4.10;;;3.13;;
70558;SDS011;58108;48.094;11.838;2023-08-12T08:32:24;5.30;;;3.27;;
70558;SDS011;58108;48.094;11.838;2023-08-12T08:34:50;6.93;;;3.20;;
70558;SDS011;58108;48.094;11.838;2023-08-12T08:37:15;4.53;;;3.23;;
70558;SDS011;58108;48.094;11.838;2023-08-12T08:39:41;4.40;;;3.23;;
70558;SDS011;58108;48.094;11.838;2023-08-12T08:42:06;4.20;;;3.07;;
70558;SDS011;58108;48.094;11.838;2023-08-12T08:44:32;4.87;;;3.13;;
70558;SDS011;58108;48.094;11.838;2023-08-12T08:46:58;5.13;;;3.17;;
70558;SDS011;58108;48.094;11.838;2023-08-12T08:49:24;5.43;;;3.20;;
70558;SDS011;58108;48.094;11.838;2023-08-12T08:51:50;5.20;;;3.00;;
70558;SDS011;58108;48.094;11.838;2023-08-12T08:54:16;4.23;;;3.03;;
70558;SDS011;58108;48.094;11.838;2023-08-12T08:56:41;5.33;;;3.50;;
70558;SDS011;58108;48.094;11.838;2023-08-12T08:59:07;4.85;;;3.17;;
70558;SDS011;58108;48.094;11.838;2023-08-12T09:01:32;4.17;;;3.00;;
70558;SDS011;58108;48.094;11.838;2023-08-12T09:03:57;4.10;;;3.13;;
70558;SDS011;58108;48.094;11.838;2023-08-12T09:06:24;6.47;;;3.63;;
70558;SDS011;58108;48.094;11.838;2023-08-12T09:08:51;6.78;;;3.70;;
70558;SDS011;58108;48.094;11.838;2023-08-12T09:11:17;5.43;;;3.60;;
70558;SDS011;58108;48.094;11.838;2023-08-12T09:13:42;4.87;;;3.60;;
70558;SDS011;58108;48.094;11.838;2023-08-12T09:16:07;4.33;;;3.30;;
70558;SDS011;58108;48.094;11.838;2023-08-12T09:18:34;4.75;;;3.60;;
70558;SDS011;58108;48.094;11.838;2023-08-12T09:20:59;12.53;;;7.93;;
70558;SDS011;58108;48.094;11.838;2023-08-12T09:23:25;16.80;;;8.55;;
70558;SDS011;58108;48.094;11.838;2023-08-12T09:25:51;4.67;;;3.10;;
70558;SDS011;58108;48.094;11.838;2023-08-12T09:28:18;4.63;;;2.90;;
70558;SDS011;58108;48.094;11.838;2023-08-12T09:30:49;4.10;;;3.28;;
70558;SDS011;58108;48.094;11.838;2023-08-12T09:33:14;3.50;;;2.45;;
70558;SDS011;58108;48.094;11.838;2023-08-12T09:35:40;4.83;;;3.13;;
70558;SDS011;58108;48.094;11.838;2023-08-12T09:38:06;4.03;;;3.08;;
70558;SDS011;58108;48.094;11.838;2023-08-12T09:40:33;4.70;;;3.28;;
70558;SDS011;58108;48.094;11.838;2023-08-12T09:42:58;5.90;;;3.03;;
70558;SDS011;58108;48.094;11.838;2023-08-12T09:45:24;4.03;;;3.03;;
70558;SDS011;58108;48.094;11.838;2023-08-12T09:47:50;4.35;;;2.70;;
70558;SDS011;58108;48.094;11.838;2023-08-12T09:50:15;4.05;;;2.55;;
70558;SDS011;58108;48.094;11.838;2023-08-12T09:52:41;4.17;;;2.70;;
70558;SDS011;58108;48.094;11.838;2023-08-12T09:55:07;5.63;;;2.80;;
70558;SDS011;58108;48.094;11.838;2023-08-12T09:57:33;4.85;;;2.60;;
70558;SDS011;58108;48.094;11.838;2023-08-12T09:59:58;4.30;;;2.60;;
70558;SDS011;58108;48.094;11.838;2023-08-12T10:02:24;4.15;;;2.75;;
70558;SDS011;58108;48.094;11.838;2023-08-12T10:04:50;4.00;;;2.67;;
70558;SDS011;58108;48.094;11.838;2023-08-12T10:07:15;3.58;;;2.55;;
70558;SDS011;58108;48.094;11.838;2023-08-12T10:09:42;3.87;;;2.60;;
70558;SDS011;58108;48.094;11.838;2023-08-12T10:12:08;4.50;;;2.90;;
70558;SDS011;58108;48.094;11.838;2023-08-12T10:14:34;4.15;;;2.78;;
70558;SDS011;58108;48.094;11.838;2023-08-12T10:16:59;5.40;;;2.60;;
70558;SDS011;58108;48.094;11.838;2023-08-12T10:19:24;3.90;;;2.70;;
70558;SDS011;58108;48.094;11.838;2023-08-12T10:21:50;4.82;;;2.92;;
70558;SDS011;58108;48.094;11.838;2023-08-12T10:24:19;3.72;;;2.80;;
70558;SDS011;58108;48.094;11.838;2023-08-12T10:26:44;4.10;;;2.73;;
70558;SDS011;58108;48.094;11.838;2023-08-12T10:29:10;4.03;;;2.92;;
70558;SDS011;58108;48.094;11.838;2023-08-12T10:31:37;3.80;;;2.78;;
70558;SDS011;58108;48.094;11.838;2023-08-12T10:34:03;4.40;;;2.77;;
70558;SDS011;58108;48.094;11.838;2023-08-12T10:36:28;4.80;;;2.60;;
70558;SDS011;58108;48.094;11.838;2023-08-12T10:38:53;3.60;;;2.67;;
70558;SDS011;58108;48.094;11.838;2023-08-12T10:41:21;3.53;;;2.83;;
70558;SDS011;58108;48.094;11.838;2023-08-12T10:43:54;4.97;;;3.00;;
70558;SDS011;58108;48.094;11.838;2023-08-12T10:46:37;4.30;;;2.92;;
70558;SDS011;58108;48.094;11.838;2023-08-12T10:49:04;4.97;;;3.08;;
70558;SDS011;58108;48.094;11.838;2023-08-12T10:51:52;4.40;;;3.28;;
70558;SDS011;58108;48.094;11.838;2023-08-12T11:02:13;4.68;;;3.20;;
70558;SDS011;58108;48.094;11.838;2023-08-12T11:04:41;3.90;;;2.80;;
70558;SDS011;58108;48.094;11.838;2023-08-12T11:07:17;3.95;;;2.97;;
70558;SDS011;58108;48.094;11.838;2023-08-12T11:09:43;4.40;;;3.00;;
70558;SDS011;58108;48.094;11.838;2023-08-12T11:12:08;4.47;;;2.90;;
70558;SDS011;58108;48.094;11.838;2023-08-12T11:14:46;3.67;;;3.03;;
70558;SDS011;58108;48.094;11.838;2023-08-12T11:17:13;4.97;;;3.10;;
70558;SDS011;58108;48.094;11.838;2023-08-12T11:19:38;5.25;;;3.03;;
70558;SDS011;58108;48.094;11.838;2023-08-12T11:22:03;4.33;;;2.80;;
70558;SDS011;58108;48.094;11.838;2023-08-12T11:24:29;4.88;;;3.20;;
70558;SDS011;58108;48.094;11.838;2023-08-12T11:26:56;4.27;;;3.17;;
70558;SDS011;58108;48.094;11.838;2023-08-12T11:29:22;4.00;;;2.97;;
70558;SDS011;58108;48.094;11.838;2023-08-12T11:31:47;4.77;;;3.30;;
70558;SDS011;58108;48.094;11.838;2023-08-12T11:34:12;3.50;;;2.90;;
70558;SDS011;58108;48.094;11.838;2023-08-12T11:36:39;4.33;;;3.30;;
70558;SDS011;58108;48.094;11.838;2023-08-12T11:39:04;3.87;;;2.90;;
70558;SDS011;58108;48.094;11.838;2023-08-12T11:41:29;4.53;;;3.23;;
70558;SDS011;58108;48.094;11.838;2023-08-12T11:43:54;4.33;;;2.70;;
70558;SDS011;58108;48.094;11.838;2023-08-12T11:46:19;4.63;;;2.97;;
70558;SDS011;58108;48.094;11.838;2023-08-12T11:48:45;6.10;;;2.90;;
70558;SDS011;58108;48.094;11.838;2023-08-12T11:51:10;4.00;;;3.00;;
70558;SDS011;58108;48.094;11.838;2023-08-12T11:53:35;3.80;;;3.00;;
70558;SDS011;58108;48.094;11.838;2023-08-12T11:56:00;4.10;;;2.78;;
70558;SDS011;58108;48.094;11.838;2023-08-12T11:58:26;4.53;;;3.17;;
70558;SDS011;58108;48.094;11.838;2023-08-12T12:00:59;4.22;;;3.13;;
70558;SDS011;58108;48.094;11.838;2023-08-12T12:03:27;6.90;;;2.90;;
70558;SDS011;58108;48.094;11.838;2023-08-12T12:05:55;4.13;;;2.72;;
70558;SDS011;58108;48.094;11.838;2023-08-12T12:08:20;4.25;;;2.75;;
70558;SDS011;58108;48.094;11.838;2023-08-12T12:10:46;4.43;;;2.70;;
70558;SDS011;58108;48.094;11.838;2023-08-12T12:13:11;5.07;;;2.70;;
70558;SDS011;58108;48.094;11.838;2023-08-12T12:15:41;4.45;;;3.15;;
70558;SDS011;58108;48.094;11.838;2023-08-12T12:18:10;4.28;;;2.88;;
70558;SDS011;58108;48.094;11.838;2023-08-12T12:20:36;3.72;;;2.47;;
70558;SDS011;58108;48.094;11.838;2023-08-12T12:23:05;4.33;;;2.70;;
70558;SDS011;58108;48.094;11.838;2023-08-12T12:25:30;4.35;;;3.28;;
70558;SDS011;58108;48.094;11.838;2023-08-12T12:27:56;4.13;;;3.30;;
70558;SDS011;58108;48.094;11.838;2023-08-12T12:30:21;4.27;;;2.90;;
70558;SDS011;58108;48.094;11.838;2023-08-12T12:32:46;4.00;;;3.10;;
70558;SDS011;58108;48.094;11.838;2023-08-12T12:35:12;3.90;;;3.23;;
70558;SDS011;58108;48.094;11.838;2023-08-12T12:37:37;5.60;;;3.50;;
70558;SDS011;58108;48.094;11.838;2023-08-12T12:40:03;3.97;;;3.15;;
70558;SDS011;58108;48.094;11.838;2023-08-12T12:42:29;4.00;;;3.40;;
70558;SDS011;58108;48.094;11.838;2023-08-12T12:44:54;3.80;;;3.40;;
70558;SDS011;58108;48.094;11.838;2023-08-12T12:47:19;5.00;;;3.63;;
70558;SDS011;58108;48.094;11.838;2023-08-12T12:49:45;3.87;;;3.17;;
70558;SDS011;58108;48.094;11.838;2023-08-12T12:52:10;5.30;;;3.37;;
70558;SDS011;58108;48.094;11.838;2023-08-12T12:54:35;4.07;;;3.47;;
70558;SDS011;58108;48.094;11.838;2023-08-12T12:57:00;5.10;;;2.90;;
70558;SDS011;58108;48.094;11.838;2023-08-12T12:59:26;3.93;;;2.77;;
70558;SDS011;58108;48.094;11.838;2023-08-12T13:01:51;4.33;;;2.90;;
70558;SDS011;58108;48.094;11.838;2023-08-12T13:04:16;3.60;;;3.13;;
70558;SDS011;58108;48.094;11.838;2023-08-12T13:06:42;5.93;;;3.00;;
70558;SDS011;58108;48.094;11.838;2023-08-12T13:09:07;3.70;;;2.70;;
70558;SDS011;58108;48.094;11.838;2023-08-12T13:11:32;3.87;;;2.70;;
70558;SDS011;58108;48.094;11.838;2023-08-12T13:14:01;4.38;;;2.75;;
70558;SDS011;58108;48.094;11.838;2023-08-12T13:16:27;3.03;;;2.73;;
70558;SDS011;58108;48.094;11.838;2023-08-12T13:21:43;3.70;;;3.28;;
70558;SDS011;58108;48.094;11.838;2023-08-12T13:24:09;4.07;;;2.77;;
70558;SDS011;58108;48.094;11.838;2023-08-12T13:26:34;3.50;;;2.90;;
70558;SDS011;58108;48.094;11.838;2023-08-12T13:28:59;4.00;;;2.97;;
70558;SDS011;58108;48.094;11.838;2023-08-12T13:31:24;3.30;;;2.90;;
70558;SDS011;58108;48.094;11.838;2023-08-12T13:33:50;3.90;;;2.83;;
70558;SDS011;58108;48.094;11.838;2023-08-12T13:36:15;4.17;;;3.00;;
70558;SDS011;58108;48.094;11.838;2023-08-12T13:38:41;4.13;;;2.73;;
70558;SDS011;58108;48.094;11.838;2023-08-12T13:41:06;5.07;;;2.70;;
70558;SDS011;58108;48.094;11.838;2023-08-12T13:43:31;4.17;;;2.80;;
70558;SDS011;58108;48.094;11.838;2023-08-12T13:45:56;5.67;;;3.03;;
70558;SDS011;58108;48.094;11.838;2023-08-12T13:48:22;5.17;;;2.60;;
70558;SDS011;58108;48.094;11.838;2023-08-12T13:50:47;3.80;;;2.60;;
70558;SDS011;58108;48.094;11.838;2023-08-12T13:53:14;3.08;;;2.40;;
70558;SDS011;58108;48.094;11.838;2023-08-12T13:55:39;4.80;;;2.70;;
70558;SDS011;58108;48.094;11.838;2023-08-12T13:58:05;3.73;;;2.80;;
70558;SDS011;58108;48.094;11.838;2023-08-12T14:00:30;3.53;;;2.87;;
70558;SDS011;58108;48.094;11.838;2023-08-12T14:02:55;5.67;;;3.10;;
70558;SDS011;58108;48.094;11.838;2023-08-12T14:05:20;5.47;;;3.30;;
70558;SDS011;58108;48.094;11.838;2023-08-12T14:07:46;3.97;;;3.10;;
70558;SDS011;58108;48.094;11.838;2023-08-12T14:10:11;5.03;;;3.00;;
70558;SDS011;58108;48.094;11.838;2023-08-12T14:12:36;4.57;;;3.07;;
70558;SDS011;58108;48.094;11.838;2023-08-12T14:15:01;4.27;;;3.23;;
70558;SDS011;58108;48.094;11.838;2023-08-12T14:17:27;4.65;;;3.00;;
70558;SDS011;58108;48.094;11.838;2023-08-12T14:19:52;4.53;;;3.50;;
70558;SDS011;58108;48.094;11.838;2023-08-12T14:22:18;5.70;;;3.60;;
70558;SDS011;58108;48.094;11.838;2023-08-12T14:24:43;4.57;;;3.55;;
70558;SDS011;58108;48.094;11.838;2023-08-12T14:27:09;5.03;;;3.60;;
70558;SDS011;58108;48.094;11.838;2023-08-12T14:29:35;5.93;;;3.35;;
70558;SDS011;58108;48.094;11.838;2023-08-12T14:32:00;4.27;;;3.57;;
70558;SDS011;58108;48.094;11.838;2023-08-12T14:34:25;4.20;;;3.30;;
70558;SDS011;58108;48.094;11.838;2023-08-12T14:36:50;4.53;;;3.10;;